Bere Alston, United Kingdom
Current Conditions -  °F | °C
As of 8:20 AM on Monday 26 Jan 2015 (Local Time) from EGHQ Reporting Station
Scattered Clouds Scattered Clouds  
Wind Chill: 41°   Ceiling: Unl
Heat Index: 46°   Visibility: 6mi
Dew Point: 41°   Wind: 12mph
Humidity: 81%   Direction: 340°NNW
Pressure: 30.3"   Gusts: NA
Location:  50.48°N, 4.19°W
Report Text: EGHQ 260820Z 34010KT 9999 FEW022 SCT038 08/05 Q1026
Loading
Personal Weather Stations






























Interactive Weather Map New forecast layout! Learn more

10-Day Weather Forecast

Advertisements
Track Severe Weather on mobile